• Join FlightAware (Why Join?)
  • Login
  • US Flag 
09:44PM EDT


 

Airport Tracker/Info


-or-


 

Live Flight TrackerFlight Track Log ✈ N561EJ ✈ 02-Aug-2013 ✈ KADS - KMOB

Flight Track Log - Related Links

Times and Time Zones

All times are in EDT time to prevent confusion due to time zone crossing. See the N561EJ flight status page for this flight to view local times or setup timezone preferences in your user account.

Time Position Orientation Groundspeed Altitude Reporting Facility
EDT Latitude Longitude Course Direction KTS MPH feet Rate Location/Type
04:15PM 32.9667 -96.8333 90° East 128 147 900  Level Dallas / Fort Worth TRACON
04:17PM 32.9667 -96.7500 90° East 230 265 3,700 2,040 Climbing Dallas / Fort Worth TRACON
04:18PM 32.9458 -96.6558 105° East 248 285 7,100 2,040 Climbing Fort Worth Center
04:19PM 32.9058 -96.5894 126° Southeast 241 277 9,100 1,920 Climbing Fort Worth Center
04:20PM 32.8636 -96.5131 123° Southeast 265 305 11,000 1,860 Climbing Fort Worth Center
04:21PM 32.8214 -96.4419 125° Southeast 270 311 12,900 1,920 Climbing Fort Worth Center
04:22PM 32.7769 -96.3633 124° Southeast 281 323 14,900 1,860 Climbing Fort Worth Center
04:23PM 32.7511 -96.2747 109° East 281 323 16,700 1,860 Climbing Fort Worth Center
04:24PM 32.7356 -96.1786 101° East 288 331 18,700 1,680 Climbing Fort Worth Center
04:25PM 32.7219 -96.0897 100° East 293 337 20,100 1,500 Climbing Fort Worth Center
04:26PM 32.7042 -95.9814 101° East 293 337 21,700 1,500 Climbing Fort Worth Center
04:27PM 32.6906 -95.8903 100° East 304 350 23,100 1,440 Climbing Fort Worth Center
04:28PM 32.6725 -95.7772 101° East 309 356 24,600 1,500 Climbing Fort Worth Center
04:29PM 32.6564 -95.6764 101° East 314 361 26,100 1,440 Climbing Fort Worth Center
04:30PM 32.6614 -95.5700 87° East 314 361 27,600 1,440 Climbing Fort Worth Center
04:31PM 32.6703 -95.4686 84° East 308 354 29,000 1,320 Climbing Fort Worth Center
04:32PM 32.6747 -95.3650 87° East 313 360 30,300 1,260 Climbing Fort Worth Center
04:33PM 32.6814 -95.2561 86° East 313 360 31,600 1,140 Climbing Fort Worth Center
04:34PM 32.6858 -95.1500 87° East 313 360 32,600 900 Climbing Fort Worth Center
04:35PM 32.6942 -95.0411 85° East 318 366 33,500 900 Climbing Fort Worth Center
04:36PM 32.7025 -94.9275 85° East 331 381 34,500 900 Climbing Fort Worth Center
04:37PM 32.7083 -94.8136 86° East 331 381 35,400 900 Climbing Fort Worth Center
04:38PM 32.6789 -94.7033 108° East 337 388 36,300 900 Climbing Fort Worth Center
04:39PM 32.6453 -94.5983 111° Southeast 337 388 37,200 720 Climbing Fort Worth Center
04:40PM 32.6075 -94.4911 113° Southeast 347 399 37,800 600 Climbing Fort Worth Center
04:41PM 32.5694 -94.3839 113° Southeast 347 399 38,500 600 Climbing Fort Worth Center
04:42PM 32.5314 -94.2767 113° Southeast 352 405 39,000 240 Climbing Fort Worth Center
04:43PM 32.4950 -94.1622 111° Southeast 357 411 39,000  Level Fort Worth Center
04:44PM 32.4542 -94.0431 112° Southeast 372 428 39,000  Level Fort Worth Center
04:45PM 32.4136 -93.9239 112° Southeast 382 440 39,000  Level Fort Worth Center
04:46PM 32.3806 -93.7947 107° East 387 445 39,000  Level Fort Worth Center
04:47PM 32.3436 -93.6708 109° East 394 453 39,000  Level Fort Worth Center
04:48PM 32.3106 -93.5469 107° East 399 459 39,000  Level Fort Worth Center
04:50PM 32.2597 -93.3653 108° East 412 474 39,000  Level Houston Center
04:51PM 32.2172 -93.2128 108° East 410 472 39,000  Level Houston Center
04:52PM 32.1800 -93.0850 109° East 410 472 39,000  Level Houston Center
04:53PM 32.1436 -92.9569 109° East 410 472 39,000  Level Houston Center
04:54PM 32.1072 -92.8294 109° East 411 473 39,000  Level Houston Center
04:55PM 32.0678 -92.6928 109° East 410 472 39,000  Level Houston Center
04:56PM 32.0311 -92.5650 109° East 410 472 39,000  Level Houston Center
04:57PM 31.9947 -92.4386 109° East 410 472 39,000  Level Houston Center
04:58PM 31.9583 -92.3119 109° East 409 471 39,000  Level Houston Center
04:59PM 31.9211 -92.1850 109° East 410 472 39,000  Level Houston Center
05:00PM 31.8758 -92.0322 109° East 411 473 39,000  Level Houston Center
05:01PM 31.8400 -91.9131 109° East 410 472 39,000  Level Houston Center
05:02PM 31.8028 -91.7867 109° East 408 470 39,000  Level Houston Center
05:03PM 31.7653 -91.6603 109° East 408 470 39,000  Level Houston Center
05:04PM 31.7200 -91.5100 109° East 405 466 39,000  Level Houston Center
05:06PM 31.6822 -91.3847 109° East 406 467 39,000 -300 Level Houston Center
05:07PM 31.6439 -91.2592 110° East 408 470 38,400 -780 Descending Houston Center
05:08PM 31.6047 -91.1269 109° East 424 488 37,400 -1,020 Descending Houston Center
05:09PM 31.5639 -90.9944 110° East 424 488 36,300 -1,020 Descending Houston Center
05:10PM 31.5242 -90.8667 110° East 417 480 35,300 -1,020 Descending Houston Center
05:11PM 31.4856 -90.7378 109° East 418 481 34,300 -1,080 Descending Houston Center
05:12PM 31.4361 -90.5808 110° East 427 491 33,100 -660 Descending Houston Center
05:13PM 31.3967 -90.4511 110° East 423 487 33,000 -60 Descending Houston Center
05:14PM 31.3567 -90.3242 110° East 416 479 33,000 -540 Level Houston Center
05:15PM 31.3158 -90.1939 110° East 425 489 32,000 -1,020 Descending Houston Center
05:16PM 31.2753 -90.0600 109° East 435 501 31,000 -1,140 Descending Houston Center
05:17PM 31.2328 -89.9272 110° East 436 502 29,700 -1,380 Descending Houston Center
05:18PM 31.1831 -89.7694 110° East 431 496 28,200 -1,500 Descending Houston Center
05:19PM 31.1428 -89.6400 110° East 422 486 26,700 -1,560 Descending Houston Center
05:20PM 31.1017 -89.5131 111° Southeast 417 480 25,000 -1,800 Descending Houston Center
05:21PM 31.0633 -89.3914 110° East 401 461 23,100 -1,980 Descending Houston Center
05:22PM 31.0250 -89.2742 111° Southeast 388 447 21,000 -2,100 Descending Houston Center
05:23PM 30.9878 -89.1586 111° Southeast 382 440 18,800 -2,160 Descending Houston Center
05:24PM 30.9511 -89.0483 111° Southeast 371 427 16,600 -2,400 Descending Houston Center
05:25PM 30.9092 -88.9192 111° Southeast 355 409 13,900 -2,460 Descending Houston Center
05:26PM 30.8769 -88.8194 111° Southeast 339 390 11,600 -2,220 Descending Houston Center
05:27PM 30.8444 -88.7236 112° Southeast 330 380 9,400 -2,160 Descending Houston Center
05:28PM 30.8144 -88.6406 113° Southeast 306 352 7,200 -2,100 Descending Houston Center
05:29PM 30.7900 -88.5608 110° East 277 319 5,100 -2,040 Descending Houston Center
05:30PM 30.7622 -88.4708 110° East 254 292 3,100 -1,500 Descending Houston Center
05:31PM 30.7478 -88.4006 103° East 238 274 2,100 -720 Descending Houston Center
05:32PM 30.7519 -88.3469 85° East 193 222 1,700 -360 Descending Houston Center
05:33PM 30.7450 -88.3003 100° East 168 193 1,400 -480 Descending Houston Center
05:34PM 30.7228 -88.2681 129° Southeast 144 166 700 -480 Descending Houston Center
05:36PM 30.6925 -88.2414 143° Southeast 134 154 400 -300 Descending Houston Center
05:38PM 30.6914 -88.2428 115° Southeast  Level Estimated